createdAt,value
2019-05-25T00:06:12.902Z,99
2019-05-25T00:16:13.106Z,99
2019-05-25T00:26:12.895Z,99
2019-05-25T00:36:12.917Z,99
2019-05-25T00:46:12.975Z,99
2019-05-25T00:56:12.941Z,99
2019-05-25T01:06:13.003Z,99
2019-05-25T01:16:12.964Z,99
2019-05-25T01:26:13.005Z,99
2019-05-25T01:36:12.997Z,99
2019-05-25T01:46:13.054Z,99
2019-05-25T01:56:13.720Z,99
2019-05-25T02:06:13.883Z,99
2019-05-25T02:16:13.193Z,99
2019-05-25T02:26:13.325Z,99
2019-05-25T02:36:13.105Z,99
2019-05-25T02:46:13.135Z,99
2019-05-25T02:56:13.143Z,99
2019-05-25T03:06:13.268Z,99
2019-05-25T03:16:13.212Z,99
2019-05-25T03:26:13.209Z,99
2019-05-25T03:36:13.227Z,99
2019-05-25T03:46:13.446Z,99
2019-05-25T03:56:14.957Z,99
2019-05-25T04:06:13.922Z,99
2019-05-25T04:16:16.296Z,99
2019-05-25T04:26:21.749Z,99
2019-05-25T04:36:13.387Z,99
2019-05-25T04:46:13.359Z,99
2019-05-25T04:56:13.382Z,99
2019-05-25T05:06:13.473Z,99
2019-05-25T05:16:13.423Z,99
2019-05-25T05:26:13.439Z,99
2019-05-25T05:36:13.471Z,99
2019-05-25T05:46:13.465Z,99
2019-05-25T05:56:13.474Z,99
2019-05-25T06:06:13.507Z,99
2019-05-25T06:16:13.517Z,99
2019-05-25T06:26:13.542Z,99
2019-05-25T06:36:13.589Z,99
2019-05-25T06:56:13.772Z,99
2019-05-25T07:06:13.753Z,99
2019-05-25T07:16:13.795Z,99
2019-05-25T07:26:13.801Z,99
2019-05-25T07:36:13.813Z,99
2019-05-25T07:46:16.926Z,99
2019-05-25T07:56:13.877Z,99
2019-05-25T08:06:13.878Z,99
2019-05-25T08:16:13.897Z,99
2019-05-25T08:26:13.919Z,99
2019-05-25T08:36:13.931Z,99
2019-05-25T08:46:13.943Z,99
2019-05-25T08:56:13.962Z,99
2019-05-25T09:06:13.999Z,99
2019-05-25T09:16:14.051Z,99
2019-05-25T09:26:14.064Z,94
2019-05-25T09:36:14.039Z,77
2019-05-25T09:46:14.060Z,73
2019-05-25T09:56:14.078Z,68
2019-05-25T10:06:14.254Z,63
2019-05-25T10:16:14.885Z,58
2019-05-25T10:26:15.297Z,56
2019-05-25T10:36:14.186Z,55
2019-05-25T10:46:14.177Z,54
2019-05-25T10:56:14.201Z,52
2019-05-25T11:06:14.229Z,52
2019-05-25T11:16:14.282Z,53
2019-05-25T11:26:14.273Z,51
2019-05-25T11:36:14.414Z,50
2019-05-25T11:46:14.306Z,50
2019-05-25T11:56:14.314Z,49
2019-05-25T12:06:14.390Z,47
2019-05-25T12:16:14.333Z,47
2019-05-25T12:26:14.743Z,48
2019-05-25T12:36:14.783Z,45
2019-05-25T12:46:14.806Z,45
2019-05-25T12:56:14.849Z,43
2019-05-25T13:06:18.020Z,44
2019-05-25T13:16:14.926Z,43
2019-05-25T13:26:14.904Z,43
2019-05-25T13:36:14.873Z,43
2019-05-25T13:46:14.903Z,42
2019-05-25T13:56:14.946Z,44
2019-05-25T14:06:14.942Z,43
2019-05-25T14:16:14.962Z,44
2019-05-25T14:26:14.975Z,44
2019-05-25T14:36:15.028Z,47
2019-05-25T14:46:27.179Z,45
2019-05-25T14:56:15.064Z,43
2019-05-25T15:06:15.119Z,43
2019-05-25T15:16:15.349Z,43
2019-05-25T15:26:15.615Z,42
2019-05-25T15:36:15.730Z,42
2019-05-25T15:46:15.681Z,43
2019-05-25T15:56:15.716Z,44
2019-05-25T16:06:16.415Z,46
2019-05-25T16:16:16.529Z,51
2019-05-25T16:26:15.755Z,53
2019-05-25T16:36:17.364Z,53
2019-05-25T16:46:16.699Z,55
2019-05-25T17:36:24.463Z,58
2019-05-25T17:46:25.072Z,58
2019-05-25T17:56:22.129Z,60
2019-05-25T18:06:22.132Z,61
2019-05-25T18:16:22.167Z,64
2019-05-25T18:26:22.185Z,65
2019-05-25T18:36:22.187Z,67
2019-05-25T18:46:23.293Z,69
2019-05-25T18:56:22.259Z,71
2019-05-25T19:20:08.806Z,79
2019-05-25T19:26:22.296Z,89
2019-05-25T19:36:22.346Z,95
2019-05-25T19:46:22.320Z,99
2019-05-25T19:56:22.367Z,99
2019-05-25T20:06:22.495Z,99
2019-05-25T20:16:24.840Z,99
2019-05-25T20:26:22.402Z,99
2019-05-25T20:36:22.415Z,99
2019-05-25T20:46:22.451Z,99
2019-05-25T20:56:22.473Z,99
2019-05-25T21:06:22.478Z,99
2019-05-25T21:16:22.750Z,99
2019-05-25T21:26:24.067Z,99
2019-05-25T21:36:22.538Z,99
2019-05-25T21:46:22.560Z,99
2019-05-25T21:56:22.580Z,99
2019-05-25T22:06:24.481Z,99
2019-05-25T22:16:22.627Z,99
2019-05-25T22:26:22.632Z,99
2019-05-25T22:36:22.643Z,99
2019-05-25T22:46:22.656Z,99
2019-05-25T22:56:22.681Z,99
2019-05-25T23:06:22.695Z,99
2019-05-25T23:16:22.747Z,99
2019-05-25T23:26:22.724Z,99
2019-05-25T23:36:22.747Z,99
2019-05-25T23:46:22.761Z,99
2019-05-25T23:56:22.783Z,99
